PWSweather.com
Personal Weather Stations
Station Observations
FARMINGTON
Golden Pond Farm, Farmington, MN 55024

Golden Pond FarmFarmington, MN 55024

Lat: 44.65, Lon: -93.18

Elevation: 922

Station Type:

http://www.farmingtonweather.com

High Low Average
Temperature 30.8°F-0.7°C 27.6°F-2.4°C 28.7°F-1.8°C
Dew Point 27.3°F-2.6°C 25.0°F-3.9°C 25.9°F-3.4°C
Winds 10.0 mph 16.1 kmh Calm Calm 4.0 mph WNW6.4 kmh WNW
Wind Gusts 14.0 mph22.5 kmh -- 6.0 mph9.7 kmh
Humidity 92% 86% 89%
Pressure 30.34 in1027.4 mb 30.27 in1025.1 mb -
Precipitation 0.00 in0.0 mm - -
Hour Temp Dew Point Humidity Winds Wind Gusts Pressure Precip Precip Rate Daily Precip Total
12:00 AM 28.4°F-2.0°C 26.4°F-3.1°C 92% 9.0 mph NW14.5 kmh NW 15.0 mph24.1 kmh 30.30 in1026.1 mb 0.00 in0.0 mm 0.00 in/hr0.0 mm/hr 0.00 in0.0 mm
12:10 AM 28.4°F-2.0°C 26.4°F-3.1°C 92% 8.0 mph NW12.9 kmh NW 12.0 mph19.3 kmh 30.30 in1026.1 mb 0.00 in0.0 mm 0.00 in/hr0.0 mm/hr 0.00 in0.0 mm
12:20 AM 28.3°F-2.1°C 26.3°F-3.2°C 92% 6.0 mph NW9.7 kmh NW 5.0 mph8.0 kmh 30.31 in1026.4 mb 0.00 in0.0 mm 0.00 in/hr0.0 mm/hr 0.00 in0.0 mm
12:30 AM 28.3°F-2.1°C 26.3°F-3.2°C 92% 9.0 mph WNW14.5 kmh WNW 12.0 mph19.3 kmh 30.31 in1026.4 mb 0.00 in0.0 mm 0.00 in/hr0.0 mm/hr 0.00 in0.0 mm
12:40 AM 28.3°F-2.1°C 26.3°F-3.2°C 92% 8.0 mph WNW12.9 kmh WNW 9.0 mph14.5 kmh 30.31 in1026.4 mb 0.00 in0.0 mm 0.00 in/hr0.0 mm/hr 0.00 in0.0 mm
12:50 AM 28.3°F-2.1°C 26.3°F-3.2°C 92% 7.0 mph WNW11.3 kmh WNW 13.0 mph20.9 kmh 30.32 in1026.8 mb 0.00 in0.0 mm 0.00 in/hr0.0 mm/hr 0.00 in0.0 mm
01:00 AM 28.4°F-2.0°C 26.3°F-3.2°C 92% 8.0 mph NW12.9 kmh NW 10.0 mph16.1 kmh 30.32 in1026.8 mb 0.00 in0.0 mm 0.00 in/hr0.0 mm/hr 0.00 in0.0 mm
01:10 AM 28.4°F-2.0°C 26.4°F-3.1°C 92% 9.0 mph NW14.5 kmh NW 13.0 mph20.9 kmh 30.32 in1026.8 mb 0.00 in0.0 mm 0.00 in/hr0.0 mm/hr 0.00 in0.0 mm
01:20 AM 28.4°F-2.0°C 26.4°F-3.1°C 92% 9.0 mph NW14.5 kmh NW 12.0 mph19.3 kmh 30.32 in1026.8 mb 0.00 in0.0 mm 0.00 in/hr0.0 mm/hr 0.00 in0.0 mm
01:30 AM 28.4°F-2.0°C 26.4°F-3.1°C 92% 9.0 mph NW14.5 kmh NW 10.0 mph16.1 kmh 30.32 in1026.8 mb 0.00 in0.0 mm 0.00 in/hr0.0 mm/hr 0.00 in0.0 mm
01:40 AM 28.4°F-2.0°C 26.4°F-3.1°C 92% 8.0 mph NW12.9 kmh NW 12.0 mph19.3 kmh 30.32 in1026.8 mb 0.00 in0.0 mm 0.00 in/hr0.0 mm/hr 0.00 in0.0 mm
01:50 AM 28.4°F-2.0°C 26.4°F-3.1°C 92% 8.0 mph NW12.9 kmh NW 14.0 mph22.5 kmh 30.32 in1026.8 mb 0.00 in0.0 mm 0.00 in/hr0.0 mm/hr 0.00 in0.0 mm
02:00 AM 28.3°F-2.1°C 26.3°F-3.2°C 92% 7.0 mph NW11.3 kmh NW 12.0 mph19.3 kmh 30.31 in1026.4 mb 0.00 in0.0 mm 0.00 in/hr0.0 mm/hr 0.00 in0.0 mm
02:10 AM 28.3°F-2.1°C 26.3°F-3.2°C 92% 10.0 mph WNW16.1 kmh WNW 12.0 mph19.3 kmh 30.31 in1026.4 mb 0.00 in0.0 mm 0.00 in/hr0.0 mm/hr 0.00 in0.0 mm
02:20 AM 28.3°F-2.1°C 26.3°F-3.2°C 92% 7.0 mph NW11.3 kmh NW 10.0 mph16.1 kmh 30.31 in1026.4 mb 0.00 in0.0 mm 0.00 in/hr0.0 mm/hr 0.00 in0.0 mm
02:40 AM 28.3°F-2.1°C 26.3°F-3.2°C 92% 7.0 mph NW11.3 kmh NW 12.0 mph19.3 kmh 30.31 in1026.4 mb 0.00 in0.0 mm 0.00 in/hr0.0 mm/hr 0.00 in0.0 mm
02:50 AM 28.4°F-2.0°C 26.4°F-3.1°C 92% 7.0 mph NW11.3 kmh NW 12.0 mph19.3 kmh 30.31 in1026.4 mb 0.00 in0.0 mm 0.00 in/hr0.0 mm/hr 0.00 in0.0 mm
03:00 AM 28.4°F-2.0°C 26.1°F-3.3°C 91% 8.0 mph WNW12.9 kmh WNW 10.0 mph16.1 kmh 30.31 in1026.4 mb 0.00 in0.0 mm 0.00 in/hr0.0 mm/hr 0.00 in0.0 mm
03:10 AM 28.4°F-2.0°C 26.1°F-3.3°C 91% 10.0 mph NW16.1 kmh NW 14.0 mph22.5 kmh 30.31 in1026.4 mb 0.00 in0.0 mm 0.00 in/hr0.0 mm/hr 0.00 in0.0 mm
03:20 AM 28.4°F-2.0°C 26.1°F-3.3°C 91% 7.0 mph WNW11.3 kmh WNW 10.0 mph16.1 kmh 30.31 in1026.4 mb 0.00 in0.0 mm 0.00 in/hr0.0 mm/hr 0.00 in0.0 mm
03:30 AM 28.4°F-2.0°C 26.1°F-3.3°C 91% 9.0 mph NW14.5 kmh NW 12.0 mph19.3 kmh 30.31 in1026.4 mb 0.00 in0.0 mm 0.00 in/hr0.0 mm/hr 0.00 in0.0 mm
03:40 AM 28.4°F-2.0°C 26.1°F-3.3°C 91% 7.0 mph NW11.3 kmh NW 10.0 mph16.1 kmh 30.32 in1026.8 mb 0.00 in0.0 mm 0.00 in/hr0.0 mm/hr 0.00 in0.0 mm
03:50 AM 28.4°F-2.0°C 26.1°F-3.3°C 91% 7.0 mph NW11.3 kmh NW 7.0 mph11.3 kmh 30.32 in1026.8 mb 0.00 in0.0 mm 0.00 in/hr0.0 mm/hr 0.00 in0.0 mm
04:00 AM 28.4°F-2.0°C 26.1°F-3.3°C 91% 6.0 mph NW9.7 kmh NW 13.0 mph20.9 kmh 30.32 in1026.8 mb 0.00 in0.0 mm 0.00 in/hr0.0 mm/hr 0.00 in0.0 mm
04:10 AM 28.3°F-2.1°C 26.0°F-3.3°C 91% 9.0 mph NW14.5 kmh NW 13.0 mph20.9 kmh 30.32 in1026.8 mb 0.00 in0.0 mm 0.00 in/hr0.0 mm/hr 0.00 in0.0 mm
04:20 AM 28.3°F-2.1°C 26.0°F-3.3°C 91% 2.0 mph NW3.2 kmh NW 5.0 mph8.0 kmh 30.32 in1026.8 mb 0.00 in0.0 mm 0.00 in/hr0.0 mm/hr 0.00 in0.0 mm
04:30 AM 28.3°F-2.1°C 26.0°F-3.3°C 91% 2.0 mph NW3.2 kmh NW 8.0 mph12.9 kmh 30.32 in1026.8 mb 0.00 in0.0 mm 0.00 in/hr0.0 mm/hr 0.00 in0.0 mm
04:40 AM 28.3°F-2.1°C 26.0°F-3.3°C 91% 5.0 mph NW8.0 kmh NW 6.0 mph9.7 kmh 30.32 in1026.8 mb 0.00 in0.0 mm 0.00 in/hr0.0 mm/hr 0.00 in0.0 mm
04:50 AM 28.2°F-2.1°C 25.9°F-3.4°C 91% 6.0 mph NW9.7 kmh NW 6.0 mph9.7 kmh 30.32 in1026.8 mb 0.00 in0.0 mm 0.00 in/hr0.0 mm/hr 0.00 in0.0 mm
05:00 AM 28.2°F-2.1°C 25.9°F-3.4°C 91% 2.0 mph NW3.2 kmh NW 3.0 mph4.8 kmh 30.31 in1026.4 mb 0.00 in0.0 mm 0.00 in/hr0.0 mm/hr 0.00 in0.0 mm
05:10 AM 28.2°F-2.1°C 25.9°F-3.4°C 91% 3.0 mph NW4.8 kmh NW 3.0 mph4.8 kmh 30.32 in1026.8 mb 0.00 in0.0 mm 0.00 in/hr0.0 mm/hr 0.00 in0.0 mm
05:20 AM 28.2°F-2.1°C 25.6°F-3.6°C 90% 3.0 mph NW4.8 kmh NW 5.0 mph8.0 kmh 30.31 in1026.4 mb 0.00 in0.0 mm 0.00 in/hr0.0 mm/hr 0.00 in0.0 mm
05:30 AM 28.1°F-2.2°C 25.6°F-3.6°C 90% 6.0 mph NW9.7 kmh NW 7.0 mph11.3 kmh 30.31 in1026.4 mb 0.00 in0.0 mm 0.00 in/hr0.0 mm/hr 0.00 in0.0 mm
05:40 AM 28.1°F-2.2°C 25.5°F-3.6°C 90% 5.0 mph NW8.0 kmh NW 7.0 mph11.3 kmh 30.31 in1026.4 mb 0.00 in0.0 mm 0.00 in/hr0.0 mm/hr 0.00 in0.0 mm
05:50 AM 28.0°F-2.2°C 25.5°F-3.6°C 90% 6.0 mph NW9.7 kmh NW 9.0 mph14.5 kmh 30.31 in1026.4 mb 0.00 in0.0 mm 0.00 in/hr0.0 mm/hr 0.00 in0.0 mm
06:00 AM 28.0°F-2.2°C 25.4°F-3.7°C 90% 8.0 mph NW12.9 kmh NW 10.0 mph16.1 kmh 30.31 in1026.4 mb 0.00 in0.0 mm 0.00 in/hr0.0 mm/hr 0.00 in0.0 mm
06:10 AM 28.0°F-2.2°C 25.4°F-3.7°C 90% Calm Calm -- 30.31 in1026.4 mb 0.00 in0.0 mm 0.00 in/hr0.0 mm/hr 0.00 in0.0 mm
06:20 AM 27.9°F-2.3°C 25.4°F-3.7°C 90% 3.0 mph NW4.8 kmh NW 7.0 mph11.3 kmh 30.32 in1026.8 mb 0.00 in0.0 mm 0.00 in/hr0.0 mm/hr 0.00 in0.0 mm
06:30 AM 27.9°F-2.3°C 25.4°F-3.7°C 90% 1.0 mph NW1.6 kmh NW 5.0 mph8.0 kmh 30.32 in1026.8 mb 0.00 in0.0 mm 0.00 in/hr0.0 mm/hr 0.00 in0.0 mm
06:40 AM 28.0°F-2.2°C 25.4°F-3.7°C 90% Calm Calm -- 30.32 in1026.8 mb 0.00 in0.0 mm 0.00 in/hr0.0 mm/hr 0.00 in0.0 mm
06:50 AM 28.0°F-2.2°C 25.4°F-3.7°C 90% 2.0 mph NW3.2 kmh NW 3.0 mph4.8 kmh 30.32 in1026.8 mb 0.00 in0.0 mm 0.00 in/hr0.0 mm/hr 0.00 in0.0 mm
07:00 AM 27.9°F-2.3°C 25.3°F-3.7°C 90% Calm Calm -- 30.32 in1026.8 mb 0.00 in0.0 mm 0.00 in/hr0.0 mm/hr 0.00 in0.0 mm
07:10 AM 27.9°F-2.3°C 25.1°F-3.8°C 89% 3.0 mph NW4.8 kmh NW 3.0 mph4.8 kmh 30.32 in1026.8 mb 0.00 in0.0 mm 0.00 in/hr0.0 mm/hr 0.00 in0.0 mm
07:20 AM 27.9°F-2.3°C 25.1°F-3.8°C 89% 1.0 mph NW1.6 kmh NW -- 30.32 in1026.8 mb 0.00 in0.0 mm 0.00 in/hr0.0 mm/hr 0.00 in0.0 mm
07:30 AM 27.9°F-2.3°C 25.1°F-3.8°C 89% 3.0 mph NW4.8 kmh NW 5.0 mph8.0 kmh 30.32 in1026.8 mb 0.00 in0.0 mm 0.00 in/hr0.0 mm/hr 0.00 in0.0 mm
07:40 AM 27.8°F-2.3°C 25.0°F-3.9°C 89% Calm Calm -- 30.32 in1026.8 mb 0.00 in0.0 mm 0.00 in/hr0.0 mm/hr 0.00 in0.0 mm
07:50 AM 27.8°F-2.3°C 25.0°F-3.9°C 89% 2.0 mph NW3.2 kmh NW 3.0 mph4.8 kmh 30.32 in1026.8 mb 0.00 in0.0 mm 0.00 in/hr0.0 mm/hr 0.00 in0.0 mm
08:00 AM 27.8°F-2.3°C 25.0°F-3.9°C 89% 2.0 mph NW3.2 kmh NW 3.0 mph4.8 kmh 30.32 in1026.8 mb 0.00 in0.0 mm 0.00 in/hr0.0 mm/hr 0.00 in0.0 mm
08:10 AM 27.8°F-2.3°C 25.0°F-3.9°C 89% 5.0 mph NW8.0 kmh NW 6.0 mph9.7 kmh 30.32 in1026.8 mb 0.00 in0.0 mm 0.00 in/hr0.0 mm/hr 0.00 in0.0 mm
08:20 AM 27.8°F-2.3°C 25.2°F-3.8°C 90% 5.0 mph NW8.0 kmh NW 5.0 mph8.0 kmh 30.32 in1026.8 mb 0.00 in0.0 mm 0.00 in/hr0.0 mm/hr 0.00 in0.0 mm
08:30 AM 27.8°F-2.3°C 25.0°F-3.9°C 89% Calm Calm -- 30.32 in1026.8 mb 0.00 in0.0 mm 0.00 in/hr0.0 mm/hr 0.00 in0.0 mm
08:40 AM 27.8°F-2.3°C 25.2°F-3.8°C 90% Calm Calm -- 30.32 in1026.8 mb 0.00 in0.0 mm 0.00 in/hr0.0 mm/hr 0.00 in0.0 mm
08:50 AM 27.7°F-2.4°C 25.2°F-3.8°C 90% 1.0 mph NW1.6 kmh NW -- 30.32 in1026.8 mb 0.00 in0.0 mm 0.00 in/hr0.0 mm/hr 0.00 in0.0 mm
09:00 AM 27.6°F-2.4°C 25.1°F-3.8°C 90% Calm Calm -- 30.32 in1026.8 mb 0.00 in0.0 mm 0.00 in/hr0.0 mm/hr 0.00 in0.0 mm
09:10 AM 27.6°F-2.4°C 25.1°F-3.8°C 90% Calm Calm -- 30.32 in1026.8 mb 0.00 in0.0 mm 0.00 in/hr0.0 mm/hr 0.00 in0.0 mm
09:20 AM 27.6°F-2.4°C 25.1°F-3.8°C 90% Calm Calm -- 30.33 in1027.1 mb 0.00 in0.0 mm 0.00 in/hr0.0 mm/hr 0.00 in0.0 mm
09:30 AM 27.7°F-2.4°C 25.1°F-3.8°C 90% Calm Calm -- 30.33 in1027.1 mb 0.00 in0.0 mm 0.00 in/hr0.0 mm/hr 0.00 in0.0 mm
09:40 AM 27.7°F-2.4°C 25.2°F-3.8°C 90% 1.0 mph NW1.6 kmh NW 6.0 mph9.7 kmh 30.34 in1027.4 mb 0.00 in0.0 mm 0.00 in/hr0.0 mm/hr 0.00 in0.0 mm
09:50 AM 27.7°F-2.4°C 25.2°F-3.8°C 90% 1.0 mph NW1.6 kmh NW 6.0 mph9.7 kmh 30.33 in1027.1 mb 0.00 in0.0 mm 0.00 in/hr0.0 mm/hr 0.00 in0.0 mm
10:00 AM 27.6°F-2.4°C 25.1°F-3.8°C 90% Calm Calm 3.0 mph4.8 kmh 30.33 in1027.1 mb 0.00 in0.0 mm 0.00 in/hr0.0 mm/hr 0.00 in0.0 mm
10:10 AM 27.8°F-2.3°C 25.2°F-3.8°C 90% 2.0 mph NW3.2 kmh NW 3.0 mph4.8 kmh 30.33 in1027.1 mb 0.00 in0.0 mm 0.00 in/hr0.0 mm/hr 0.00 in0.0 mm
10:20 AM 27.8°F-2.3°C 25.2°F-3.8°C 90% Calm Calm -- 30.33 in1027.1 mb 0.00 in0.0 mm 0.00 in/hr0.0 mm/hr 0.00 in0.0 mm
10:30 AM 27.9°F-2.3°C 25.3°F-3.7°C 90% 2.0 mph NW3.2 kmh NW 3.0 mph4.8 kmh 30.33 in1027.1 mb 0.00 in0.0 mm 0.00 in/hr0.0 mm/hr 0.00 in0.0 mm
10:40 AM 27.9°F-2.3°C 25.3°F-3.7°C 90% 3.0 mph NW4.8 kmh NW 5.0 mph8.0 kmh 30.34 in1027.4 mb 0.00 in0.0 mm 0.00 in/hr0.0 mm/hr 0.00 in0.0 mm
10:50 AM 27.9°F-2.3°C 25.3°F-3.7°C 90% Calm Calm -- 30.34 in1027.4 mb 0.00 in0.0 mm 0.00 in/hr0.0 mm/hr 0.00 in0.0 mm
11:00 AM 27.9°F-2.3°C 25.4°F-3.7°C 90% 1.0 mph NW1.6 kmh NW -- 30.34 in1027.4 mb 0.00 in0.0 mm 0.00 in/hr0.0 mm/hr 0.00 in0.0 mm
11:10 AM 28.1°F-2.2°C 25.5°F-3.6°C 90% 3.0 mph NW4.8 kmh NW 5.0 mph8.0 kmh 30.34 in1027.4 mb 0.00 in0.0 mm 0.00 in/hr0.0 mm/hr 0.00 in0.0 mm
11:20 AM 28.2°F-2.1°C 25.7°F-3.5°C 90% 5.0 mph NW8.0 kmh NW 5.0 mph8.0 kmh 30.34 in1027.4 mb 0.00 in0.0 mm 0.00 in/hr0.0 mm/hr 0.00 in0.0 mm
11:30 AM 28.4°F-2.0°C 25.8°F-3.4°C 90% 5.0 mph NW8.0 kmh NW 7.0 mph11.3 kmh 30.34 in1027.4 mb 0.00 in0.0 mm 0.00 in/hr0.0 mm/hr 0.00 in0.0 mm
11:40 AM 28.4°F-2.0°C 25.8°F-3.4°C 90% 3.0 mph NW4.8 kmh NW 5.0 mph8.0 kmh 30.34 in1027.4 mb 0.00 in0.0 mm 0.00 in/hr0.0 mm/hr 0.00 in0.0 mm
11:50 AM 28.4°F-2.0°C 25.8°F-3.4°C 90% 1.0 mph NW1.6 kmh NW 2.0 mph3.2 kmh 30.34 in1027.4 mb 0.00 in0.0 mm 0.00 in/hr0.0 mm/hr 0.00 in0.0 mm
12:00 PM 28.6°F-1.9°C 26.0°F-3.3°C 90% 7.0 mph WNW11.3 kmh WNW 8.0 mph12.9 kmh 30.34 in1027.4 mb 0.00 in0.0 mm 0.00 in/hr0.0 mm/hr 0.00 in0.0 mm
12:10 PM 28.6°F-1.9°C 26.0°F-3.3°C 90% 3.0 mph WNW4.8 kmh WNW 6.0 mph9.7 kmh 30.34 in1027.4 mb 0.00 in0.0 mm 0.00 in/hr0.0 mm/hr 0.00 in0.0 mm
12:20 PM 28.7°F-1.8°C 25.9°F-3.4°C 89% 1.0 mph W1.6 kmh W 3.0 mph4.8 kmh 30.34 in1027.4 mb 0.00 in0.0 mm 0.00 in/hr0.0 mm/hr 0.00 in0.0 mm
12:30 PM 28.7°F-1.8°C 25.9°F-3.4°C 89% 6.0 mph W9.7 kmh W 10.0 mph16.1 kmh 30.34 in1027.4 mb 0.00 in0.0 mm 0.00 in/hr0.0 mm/hr 0.00 in0.0 mm
12:40 PM 28.7°F-1.8°C 25.9°F-3.4°C 89% 5.0 mph W8.0 kmh W 8.0 mph12.9 kmh 30.33 in1027.1 mb 0.00 in0.0 mm 0.00 in/hr0.0 mm/hr 0.00 in0.0 mm
12:50 PM 28.8°F-1.8°C 26.0°F-3.3°C 89% 5.0 mph W8.0 kmh W 7.0 mph11.3 kmh 30.33 in1027.1 mb 0.00 in0.0 mm 0.00 in/hr0.0 mm/hr 0.00 in0.0 mm
01:00 PM 28.8°F-1.8°C 26.0°F-3.3°C 89% 9.0 mph W14.5 kmh W 12.0 mph19.3 kmh 30.33 in1027.1 mb 0.00 in0.0 mm 0.00 in/hr0.0 mm/hr 0.00 in0.0 mm
01:10 PM 28.8°F-1.8°C 26.0°F-3.3°C 89% 6.0 mph W9.7 kmh W 7.0 mph11.3 kmh 30.33 in1027.1 mb 0.00 in0.0 mm 0.00 in/hr0.0 mm/hr 0.00 in0.0 mm
01:20 PM 28.8°F-1.8°C 26.0°F-3.3°C 89% 5.0 mph W8.0 kmh W 7.0 mph11.3 kmh 30.32 in1026.8 mb 0.00 in0.0 mm 0.00 in/hr0.0 mm/hr 0.00 in0.0 mm
01:30 PM 29.0°F-1.7°C 26.2°F-3.2°C 89% 7.0 mph W11.3 kmh W 12.0 mph19.3 kmh 30.32 in1026.8 mb 0.00 in0.0 mm 0.00 in/hr0.0 mm/hr 0.00 in0.0 mm
01:40 PM 29.1°F-1.6°C 26.3°F-3.2°C 89% 7.0 mph W11.3 kmh W 10.0 mph16.1 kmh 30.31 in1026.4 mb 0.00 in0.0 mm 0.00 in/hr0.0 mm/hr 0.00 in0.0 mm
01:50 PM 29.2°F-1.6°C 26.1°F-3.3°C 88% Calm Calm 5.0 mph8.0 kmh 30.31 in1026.4 mb 0.00 in0.0 mm 0.00 in/hr0.0 mm/hr 0.00 in0.0 mm
02:00 PM 29.5°F-1.4°C 26.7°F-2.9°C 89% 5.0 mph W8.0 kmh W 9.0 mph14.5 kmh 30.31 in1026.4 mb 0.00 in0.0 mm 0.00 in/hr0.0 mm/hr 0.00 in0.0 mm
02:10 PM 29.6°F-1.3°C 26.5°F-3.1°C 88% 5.0 mph W8.0 kmh W 5.0 mph8.0 kmh 30.31 in1026.4 mb 0.00 in0.0 mm 0.00 in/hr0.0 mm/hr 0.00 in0.0 mm
02:20 PM 29.7°F-1.3°C 26.6°F-3.0°C 88% 5.0 mph W8.0 kmh W 6.0 mph9.7 kmh 30.30 in1026.1 mb 0.00 in0.0 mm 0.00 in/hr0.0 mm/hr 0.00 in0.0 mm
02:30 PM 29.9°F-1.2°C 26.5°F-3.1°C 87% 6.0 mph W9.7 kmh W 7.0 mph11.3 kmh 30.30 in1026.1 mb 0.00 in0.0 mm 0.00 in/hr0.0 mm/hr 0.00 in0.0 mm
02:40 PM 30.0°F-1.1°C 26.6°F-3.0°C 87% 2.0 mph W3.2 kmh W 6.0 mph9.7 kmh 30.29 in1025.7 mb 0.00 in0.0 mm 0.00 in/hr0.0 mm/hr 0.00 in0.0 mm
02:50 PM 30.1°F-1.1°C 26.7°F-2.9°C 87% Calm Calm 6.0 mph9.7 kmh 30.29 in1025.7 mb 0.00 in0.0 mm 0.00 in/hr0.0 mm/hr 0.00 in0.0 mm
03:00 PM 30.2°F-1.0°C 26.8°F-2.9°C 87% 2.0 mph W3.2 kmh W 3.0 mph4.8 kmh 30.29 in1025.7 mb 0.00 in0.0 mm 0.00 in/hr0.0 mm/hr 0.00 in0.0 mm
03:10 PM 30.5°F-0.8°C 27.1°F-2.7°C 87% Calm Calm -- 30.29 in1025.7 mb 0.00 in0.0 mm 0.00 in/hr0.0 mm/hr 0.00 in0.0 mm
03:20 PM 30.7°F-0.7°C 27.3°F-2.6°C 87% 5.0 mph W8.0 kmh W 6.0 mph9.7 kmh 30.28 in1025.4 mb 0.00 in0.0 mm 0.00 in/hr0.0 mm/hr 0.00 in0.0 mm
03:30 PM 30.7°F-0.7°C 27.3°F-2.6°C 87% 5.0 mph W8.0 kmh W 6.0 mph9.7 kmh 30.28 in1025.4 mb 0.00 in0.0 mm 0.00 in/hr0.0 mm/hr 0.00 in0.0 mm
03:40 PM 30.8°F-0.7°C 27.1°F-2.7°C 86% Calm Calm -- 30.28 in1025.4 mb 0.00 in0.0 mm 0.00 in/hr0.0 mm/hr 0.00 in0.0 mm
03:50 PM 30.8°F-0.7°C 27.1°F-2.7°C 86% 2.0 mph W3.2 kmh W 5.0 mph8.0 kmh 30.28 in1025.4 mb 0.00 in0.0 mm 0.00 in/hr0.0 mm/hr 0.00 in0.0 mm
04:00 PM 30.8°F-0.7°C 27.1°F-2.7°C 86% Calm Calm 1.0 mph1.6 kmh 30.28 in1025.4 mb 0.00 in0.0 mm 0.00 in/hr0.0 mm/hr 0.00 in0.0 mm
04:10 PM 30.8°F-0.7°C 27.1°F-2.7°C 86% 5.0 mph W8.0 kmh W 5.0 mph8.0 kmh 30.28 in1025.4 mb 0.00 in0.0 mm 0.00 in/hr0.0 mm/hr 0.00 in0.0 mm
04:20 PM 30.6°F-0.8°C 26.9°F-2.8°C 86% Calm Calm 1.0 mph1.6 kmh 30.28 in1025.4 mb 0.00 in0.0 mm 0.00 in/hr0.0 mm/hr 0.00 in0.0 mm
04:30 PM 30.5°F-0.8°C 26.8°F-2.9°C 86% 3.0 mph W4.8 kmh W 10.0 mph16.1 kmh 30.27 in1025.1 mb 0.00 in0.0 mm 0.00 in/hr0.0 mm/hr 0.00 in0.0 mm
04:40 PM 30.2°F-1.0°C 26.5°F-3.1°C 86% 1.0 mph W1.6 kmh W 5.0 mph8.0 kmh 30.27 in1025.1 mb 0.00 in0.0 mm 0.00 in/hr0.0 mm/hr 0.00 in0.0 mm
04:50 PM 30.1°F-1.1°C 26.7°F-2.9°C 87% 6.0 mph W9.7 kmh W 10.0 mph16.1 kmh 30.27 in1025.1 mb 0.00 in0.0 mm 0.00 in/hr0.0 mm/hr 0.00 in0.0 mm
05:00 PM 30.0°F-1.1°C 26.6°F-3.0°C 87% 2.0 mph W3.2 kmh W 5.0 mph8.0 kmh 30.27 in1025.1 mb 0.00 in0.0 mm 0.00 in/hr0.0 mm/hr 0.00 in0.0 mm
05:10 PM 29.9°F-1.2°C 26.5°F-3.1°C 87% Calm Calm -- 30.27 in1025.1 mb 0.00 in0.0 mm 0.00 in/hr0.0 mm/hr 0.00 in0.0 mm
05:20 PM 29.8°F-1.2°C 26.4°F-3.1°C 87% 6.0 mph W9.7 kmh W 8.0 mph12.9 kmh 30.27 in1025.1 mb 0.00 in0.0 mm 0.00 in/hr0.0 mm/hr 0.00 in0.0 mm
05:30 PM 29.6°F-1.3°C 26.5°F-3.1°C 88% 5.0 mph W8.0 kmh W 5.0 mph8.0 kmh 30.27 in1025.1 mb 0.00 in0.0 mm 0.00 in/hr0.0 mm/hr 0.00 in0.0 mm
05:40 PM 29.4°F-1.4°C 26.3°F-3.2°C 88% 2.0 mph W3.2 kmh W 3.0 mph4.8 kmh 30.28 in1025.4 mb 0.00 in0.0 mm 0.00 in/hr0.0 mm/hr 0.00 in0.0 mm
05:50 PM 29.2°F-1.6°C 26.1°F-3.3°C 88% Calm Calm -- 30.27 in1025.1 mb 0.00 in0.0 mm 0.00 in/hr0.0 mm/hr 0.00 in0.0 mm
06:00 PM 29.1°F-1.6°C 26.0°F-3.3°C 88% 3.0 mph W4.8 kmh W 6.0 mph9.7 kmh 30.27 in1025.1 mb 0.00 in0.0 mm 0.00 in/hr0.0 mm/hr 0.00 in0.0 mm
06:10 PM 29.0°F-1.7°C 26.2°F-3.2°C 89% 5.0 mph W8.0 kmh W 9.0 mph14.5 kmh 30.27 in1025.1 mb 0.00 in0.0 mm 0.00 in/hr0.0 mm/hr 0.00 in0.0 mm
06:20 PM 28.8°F-1.8°C 26.0°F-3.3°C 89% 2.0 mph W3.2 kmh W 6.0 mph9.7 kmh 30.27 in1025.1 mb 0.00 in0.0 mm 0.00 in/hr0.0 mm/hr 0.00 in0.0 mm
06:30 PM 28.7°F-1.8°C 25.9°F-3.4°C 89% 2.0 mph W3.2 kmh W 5.0 mph8.0 kmh 30.27 in1025.1 mb 0.00 in0.0 mm 0.00 in/hr0.0 mm/hr 0.00 in0.0 mm
06:40 PM 28.7°F-1.8°C 25.9°F-3.4°C 89% Calm Calm 5.0 mph8.0 kmh 30.26 in1024.7 mb 0.00 in0.0 mm 0.00 in/hr0.0 mm/hr 0.00 in0.0 mm
06:50 PM 28.7°F-1.8°C 25.9°F-3.4°C 89% 3.0 mph W4.8 kmh W 3.0 mph4.8 kmh 30.26 in1024.7 mb 0.00 in0.0 mm 0.00 in/hr0.0 mm/hr 0.00 in0.0 mm
07:00 PM 28.7°F-1.8°C 26.1°F-3.3°C 90% Calm Calm -- 30.27 in1025.1 mb 0.00 in0.0 mm 0.00 in/hr0.0 mm/hr 0.00 in0.0 mm
07:10 PM 28.7°F-1.8°C 26.1°F-3.3°C 90% Calm Calm -- 30.26 in1024.7 mb 0.00 in0.0 mm 0.00 in/hr0.0 mm/hr 0.00 in0.0 mm
07:20 PM 28.7°F-1.8°C 26.1°F-3.3°C 90% 2.0 mph W3.2 kmh W 7.0 mph11.3 kmh 30.26 in1024.7 mb 0.00 in0.0 mm 0.00 in/hr0.0 mm/hr 0.00 in0.0 mm
07:30 PM 28.8°F-1.8°C 26.2°F-3.2°C 90% Calm Calm -- 30.26 in1024.7 mb 0.00 in0.0 mm 0.00 in/hr0.0 mm/hr 0.00 in0.0 mm
07:40 PM 28.8°F-1.8°C 26.5°F-3.1°C 91% 6.0 mph WSW9.7 kmh WSW 7.0 mph11.3 kmh 30.25 in1024.4 mb 0.00 in0.0 mm 0.00 in/hr0.0 mm/hr 0.00 in0.0 mm
07:50 PM 28.8°F-1.8°C 26.5°F-3.1°C 91% 5.0 mph WSW8.0 kmh WSW 8.0 mph12.9 kmh 30.25 in1024.4 mb 0.00 in0.0 mm 0.00 in/hr0.0 mm/hr 0.00 in0.0 mm
08:00 PM 28.9°F-1.7°C 26.6°F-3.0°C 91% 3.0 mph WSW4.8 kmh WSW 7.0 mph11.3 kmh 30.25 in1024.4 mb 0.00 in0.0 mm 0.00 in/hr0.0 mm/hr 0.00 in0.0 mm
08:10 PM 28.8°F-1.8°C 26.5°F-3.1°C 91% 2.0 mph WSW3.2 kmh WSW 3.0 mph4.8 kmh 30.24 in1024.0 mb 0.00 in0.0 mm 0.00 in/hr0.0 mm/hr 0.00 in0.0 mm
08:20 PM 28.8°F-1.8°C 26.5°F-3.1°C 91% Calm Calm 5.0 mph8.0 kmh 30.25 in1024.4 mb 0.00 in0.0 mm 0.00 in/hr0.0 mm/hr 0.00 in0.0 mm
08:30 PM 28.8°F-1.8°C 26.5°F-3.1°C 91% 3.0 mph WSW4.8 kmh WSW 6.0 mph9.7 kmh 30.24 in1024.0 mb 0.00 in0.0 mm 0.00 in/hr0.0 mm/hr 0.00 in0.0 mm
08:40 PM 28.9°F-1.7°C 26.6°F-3.0°C 91% 5.0 mph WSW8.0 kmh WSW 5.0 mph8.0 kmh 30.24 in1024.0 mb 0.00 in0.0 mm 0.00 in/hr0.0 mm/hr 0.00 in0.0 mm
08:50 PM 28.9°F-1.7°C 26.6°F-3.0°C 91% 2.0 mph WSW3.2 kmh WSW 6.0 mph9.7 kmh 30.24 in1024.0 mb 0.00 in0.0 mm 0.00 in/hr0.0 mm/hr 0.00 in0.0 mm
09:00 PM 28.9°F-1.7°C 26.6°F-3.0°C 91% 3.0 mph WSW4.8 kmh WSW 6.0 mph9.7 kmh 30.24 in1024.0 mb 0.00 in0.0 mm 0.00 in/hr0.0 mm/hr 0.00 in0.0 mm
09:10 PM 28.9°F-1.7°C 26.6°F-3.0°C 91% 3.0 mph WSW4.8 kmh WSW 7.0 mph11.3 kmh 30.24 in1024.0 mb 0.00 in0.0 mm 0.00 in/hr0.0 mm/hr 0.00 in0.0 mm
09:20 PM 28.9°F-1.7°C 26.6°F-3.0°C 91% 6.0 mph WSW9.7 kmh WSW 6.0 mph9.7 kmh 30.23 in1023.7 mb 0.00 in0.0 mm 0.00 in/hr0.0 mm/hr 0.00 in0.0 mm
09:30 PM 28.9°F-1.7°C 26.6°F-3.0°C 91% 6.0 mph SW9.7 kmh SW 7.0 mph11.3 kmh 30.23 in1023.7 mb 0.00 in0.0 mm 0.00 in/hr0.0 mm/hr 0.00 in0.0 mm
09:40 PM 28.9°F-1.7°C 26.6°F-3.0°C 91% 5.0 mph WSW8.0 kmh WSW 7.0 mph11.3 kmh 30.23 in1023.7 mb 0.00 in0.0 mm 0.00 in/hr0.0 mm/hr 0.00 in0.0 mm
09:50 PM 28.8°F-1.8°C 26.5°F-3.1°C 91% 5.0 mph WSW8.0 kmh WSW 7.0 mph11.3 kmh 30.23 in1023.7 mb 0.00 in0.0 mm 0.00 in/hr0.0 mm/hr 0.00 in0.0 mm
10:00 PM 28.8°F-1.8°C 26.5°F-3.1°C 91% 5.0 mph WSW8.0 kmh WSW 6.0 mph9.7 kmh 30.23 in1023.7 mb 0.00 in0.0 mm 0.00 in/hr0.0 mm/hr 0.00 in0.0 mm
10:10 PM 28.7°F-1.8°C 26.4°F-3.1°C 91% 6.0 mph WSW9.7 kmh WSW 8.0 mph12.9 kmh 30.23 in1023.7 mb 0.00 in0.0 mm 0.00 in/hr0.0 mm/hr 0.00 in0.0 mm
10:20 PM 28.7°F-1.8°C 26.4°F-3.1°C 91% 6.0 mph WSW9.7 kmh WSW 8.0 mph12.9 kmh 30.22 in1023.4 mb 0.00 in0.0 mm 0.00 in/hr0.0 mm/hr 0.00 in0.0 mm
10:30 PM 28.7°F-1.8°C 26.4°F-3.1°C 91% 5.0 mph WSW8.0 kmh WSW 6.0 mph9.7 kmh 30.22 in1023.4 mb 0.00 in0.0 mm 0.00 in/hr0.0 mm/hr 0.00 in0.0 mm
10:40 PM 28.7°F-1.8°C 26.4°F-3.1°C 91% 2.0 mph WSW3.2 kmh WSW 3.0 mph4.8 kmh 30.22 in1023.4 mb 0.00 in0.0 mm 0.00 in/hr0.0 mm/hr 0.00 in0.0 mm
10:50 PM 28.7°F-1.8°C 26.4°F-3.1°C 91% 2.0 mph WSW3.2 kmh WSW 5.0 mph8.0 kmh 30.22 in1023.4 mb 0.00 in0.0 mm 0.00 in/hr0.0 mm/hr 0.00 in0.0 mm
11:00 PM 28.6°F-1.9°C 26.3°F-3.2°C 91% 5.0 mph WSW8.0 kmh WSW 7.0 mph11.3 kmh 30.21 in1023.0 mb 0.00 in0.0 mm 0.00 in/hr0.0 mm/hr 0.00 in0.0 mm
11:10 PM 28.6°F-1.9°C 26.3°F-3.2°C 91% 5.0 mph WSW8.0 kmh WSW 7.0 mph11.3 kmh 30.21 in1023.0 mb 0.00 in0.0 mm 0.00 in/hr0.0 mm/hr 0.00 in0.0 mm
11:20 PM 28.5°F-1.9°C 26.2°F-3.2°C 91% 6.0 mph WSW9.7 kmh WSW 7.0 mph11.3 kmh 30.20 in1022.7 mb 0.00 in0.0 mm 0.00 in/hr0.0 mm/hr 0.00 in0.0 mm
11:30 PM 28.5°F-1.9°C 26.2°F-3.2°C 91% 7.0 mph SW11.3 kmh SW 9.0 mph14.5 kmh 30.20 in1022.7 mb 0.00 in0.0 mm 0.00 in/hr0.0 mm/hr 0.00 in0.0 mm
11:40 PM 28.5°F-1.9°C 26.2°F-3.2°C 91% 5.0 mph SW8.0 kmh SW 6.0 mph9.7 kmh 30.20 in1022.7 mb 0.00 in0.0 mm 0.00 in/hr0.0 mm/hr 0.00 in0.0 mm
11:50 PM 28.5°F-1.9°C 26.2°F-3.2°C 91% Calm Calm 6.0 mph9.7 kmh 30.20 in1022.7 mb 0.00 in0.0 mm 0.00 in/hr0.0 mm/hr 0.00 in0.0 mm